Time;durP1;ratioP1;P1;durP2;ratioP2;P2;SDS_P1;SDS_P2;PMS_P1;PMS_P2;Temp;Humidity;BMP_temperature;BMP_pressure;BME280_temperature;BME280_humidity;BME280_pressure;Samples;Min_cycle;Max_cycle;Signal;HPM_P1;HPM_P2
2022/04/26 03:37:21;;;;;;;;;;;;;;;10.68;91.05;98599.89;1759326;81;22359;-74
2022/04/26 03:39:47;;;;;;;6.28;1.95;;;;;;;10.68;91.28;98596.42;1757093;81;20232;-74
2022/04/26 03:42:16;;;;;;;3.83;1.60;;;;;;;10.64;91.34;98600.98;1786089;80;21489;-74
2022/04/26 03:44:46;;;;;;;2.90;1.90;;;;;;;10.62;91.46;98606.76;1785945;80;20995;-74
2022/04/26 03:47:10;;;;;;;3.87;1.82;;;;;;;10.63;91.59;98611.11;1784739;80;21163;-74
2022/04/26 03:49:39;;;;;;;3.33;1.85;;;;;;;10.63;91.67;98614.21;1785999;80;21059;-74
2022/04/26 03:52:08;;;;;;;3.58;1.80;;;;;;;10.60;91.80;98618.67;1786144;80;21067;-73
2022/04/26 03:54:36;;;;;;;7.10;2.10;;;;;;;10.62;91.91;98622.55;1786008;80;21557;-74
2022/04/26 03:57:03;;;;;;;2.80;1.82;;;;;;;10.63;92.00;98625.58;1786446;80;21506;-74
2022/04/26 03:59:29;;;;;;;4.37;1.90;;;;;;;10.63;92.10;98628.20;1785805;80;21210;-74
2022/04/26 04:01:56;;;;;;;3.42;2.02;;;;;;;10.63;92.10;98636.09;1776826;80;21545;-74
2022/04/26 04:04:24;;;;;;;4.25;1.70;;;;;;;10.64;92.13;98640.44;1771225;81;21067;-72
2022/04/26 04:06:52;;;;;;;6.12;2.20;;;;;;;10.65;92.11;98644.76;1770997;81;21005;-74
2022/04/26 04:09:18;;;;;;;3.05;1.85;;;;;;;10.66;92.08;98639.90;1771283;81;21423;-74
2022/04/26 04:11:46;;;;;;;5.97;2.05;;;;;;;10.70;92.09;98640.59;1771336;80;21031;-74
2022/04/26 04:14:14;;;;;;;3.87;2.00;;;;;;;10.71;92.08;98644.94;1770925;81;21048;-74
2022/04/26 04:16:41;;;;;;;3.72;1.60;;;;;;;10.74;92.00;98641.69;1771380;80;21048;-74
2022/04/26 04:19:20;;;;;;;5.10;1.92;;;;;;;10.77;91.86;98652.04;1771464;81;21044;-73
2022/04/26 04:21:51;;;;;;;4.45;1.70;;;;;;;10.82;91.81;98657.55;1771091;80;20980;-73
2022/04/26 04:24:18;;;;;;;4.30;2.00;;;;;;;10.84;91.77;98660.48;1771318;81;21152;-74
2022/04/26 04:26:45;;;;;;;4.50;1.70;;;;;;;10.87;91.78;98662.13;1771467;80;21130;-75
2022/04/26 04:29:14;;;;;;;2.87;1.80;;;;;;;10.90;91.76;98665.92;1771451;80;22012;-74
2022/04/26 04:31:41;;;;;;;3.60;1.82;;;;;;;10.96;91.72;98665.60;1771447;81;21016;-74
2022/04/26 04:34:09;;;;;;;2.45;2.00;;;;;;;11.00;91.61;98668.48;1771563;81;21016;-74
2022/04/26 04:36:37;;;;;;;2.22;1.67;;;;;;;11.01;91.39;98672.83;1771152;80;21205;-73
2022/04/26 04:39:04;;;;;;;4.58;1.80;;;;;;;11.00;91.34;98671.59;1771316;80;21051;-73
2022/04/26 04:41:37;;;;;;;3.12;2.12;;;;;;;11.02;91.43;98671.89;1771335;80;20996;-74
2022/04/26 04:44:06;;;;;;;2.85;1.87;;;;;;;11.05;91.35;98670.89;1771562;81;21075;-73
2022/04/26 04:46:34;;;;;;;8.13;2.30;;;;;;;11.05;91.28;98666.47;1771294;80;20968;-74
2022/04/26 04:49:01;;;;;;;8.35;2.55;;;;;;;11.05;91.31;98659.89;1771392;81;21128;-74
2022/04/26 04:51:29;;;;;;;4.92;2.55;;;;;;;11.11;91.32;98672.76;1771360;80;21009;-74
2022/04/26 04:53:56;;;;;;;4.42;2.37;;;;;;;11.15;91.23;98665.08;1771522;81;21095;-73
2022/04/26 04:56:26;;;;;;;6.50;3.08;;;;;;;11.18;91.30;98665.84;1771466;80;22049;-73
2022/04/26 04:58:54;;;;;;;7.33;3.42;;;;;;;11.18;90.95;98671.11;1771540;81;20987;-74
2022/04/26 05:01:21;;;;;;;9.60;3.42;;;;;;;11.18;91.03;98671.98;1772589;80;21183;-73
2022/04/26 05:03:48;;;;;;;6.17;2.37;;;;;;;11.21;90.98;98680.17;1775114;80;20985;-74
2022/04/26 05:06:15;;;;;;;3.55;2.25;;;;;;;11.23;90.87;98683.13;1774898;80;21138;-74
2022/04/26 05:08:44;;;;;;;6.25;1.87;;;;;;;11.23;90.76;98687.08;1775218;80;21142;-73
2022/04/26 05:11:12;;;;;;;4.95;2.17;;;;;;;11.21;90.51;98684.13;1774513;80;20988;-74
2022/04/26 05:13:40;;;;;;;6.95;2.00;;;;;;;11.18;90.59;98687.78;1774881;80;21609;-74
2022/04/26 05:16:09;;;;;;;4.65;2.10;;;;;;;11.20;90.66;98695.61;1774757;80;21573;-73
2022/04/26 05:18:37;;;;;;;4.45;1.80;;;;;;;11.22;90.59;98697.69;1774524;80;21103;-74
2022/04/26 05:21:09;;;;;;;2.22;1.90;;;;;;;11.23;90.59;98700.69;1774959;80;20992;-74
2022/04/26 05:26:20;;;;;;;;;;;;;;;11.27;90.72;98696.99;1777490;80;22272;-74
2022/04/26 05:28:47;;;;;;;2.90;1.90;;;;;;;11.27;90.37;98700.94;1760993;80;20465;-74
2022/04/26 05:31:14;;;;;;;4.22;1.82;;;;;;;11.25;90.22;98700.17;1742474;82;23119;-73
2022/04/26 05:33:41;;;;;;;4.37;1.90;;;;;;;11.27;90.34;98708.84;1742422;82;21100;-73
2022/04/26 05:36:09;;;;;;;3.87;1.82;;;;;;;11.29;90.12;98713.56;1742525;82;21069;-74
2022/04/26 05:38:37;;;;;;;5.17;2.02;;;;;;;11.27;90.05;98712.31;1742366;82;20986;-74
2022/04/26 05:41:04;;;;;;;7.10;2.25;;;;;;;11.27;89.92;98719.38;1742364;82;21010;-74
2022/04/26 05:43:33;;;;;;;4.47;2.00;;;;;;;11.27;89.78;98723.33;1742827;82;21608;-74
2022/04/26 05:46:00;;;;;;;4.65;2.27;;;;;;;11.27;89.55;98723.33;1742650;81;21073;-74
2022/04/26 05:48:27;;;;;;;2.65;1.70;;;;;;;11.29;89.62;98724.09;1742676;82;21006;-73
2022/04/26 05:50:55;;;;;;;3.67;1.95;;;;;;;11.32;89.30;98727.42;1742266;82;21109;-73
2022/04/26 05:53:22;;;;;;;3.45;2.30;;;;;;;11.39;89.13;98728.44;1742631;82;21120;-74
2022/04/26 05:55:48;;;;;;;5.22;1.92;;;;;;;11.42;89.09;98725.18;1742781;82;21140;-73
2022/04/26 05:58:15;;;;;;;2.75;1.90;;;;;;;11.49;88.90;98729.67;1742743;80;21073;-74
2022/04/26 06:00:42;;;;;;;3.72;1.80;;;;;;;11.58;88.85;98733.14;1742131;82;21120;-74
2022/04/26 06:03:10;;;;;;;6.50;1.42;;;;;;;11.64;87.54;98728.04;1742770;82;21164;-74
2022/04/26 06:05:39;;;;;;;4.00;1.57;;;;;;;11.66;87.41;98730.13;1748021;82;21225;-73
2022/04/26 06:08:08;;;;;;;3.52;1.67;;;;;;;11.67;86.57;98742.38;1748304;81;21081;-75
2022/04/26 06:10:43;;;;;;;1.47;1.30;;;;;;;11.71;86.87;98739.95;1748290;82;21092;-73
2022/04/26 06:13:08;;;;;;;2.62;1.57;;;;;;;11.80;86.92;98734.22;1748120;82;21056;-74
2022/04/26 06:15:36;;;;;;;2.40;1.55;;;;;;;11.90;87.18;98745.98;1748550;82;21049;-73
2022/04/26 06:18:05;;;;;;;2.90;1.70;;;;;;;11.99;87.06;98750.42;1748035;80;21568;-73
2022/04/26 06:20:32;;;;;;;5.50;2.40;;;;;;;12.06;86.53;98762.34;1748871;80;21072;-74
2022/04/26 06:23:02;;;;;;;2.00;1.70;;;;;;;12.12;85.70;98759.39;1748534;80;21010;-73
2022/04/26 06:25:32;;;;;;;3.05;1.45;;;;;;;12.19;85.62;98754.17;1748549;80;21255;-74
2022/04/26 06:27:59;;;;;;;2.77;1.90;;;;;;;12.28;84.67;98757.25;1748520;82;21961;-75
2022/04/26 06:30:27;;;;;;;2.87;1.50;;;;;;;12.38;85.32;98754.50;1748626;82;21124;-73
2022/04/26 06:32:55;;;;;;;2.72;1.70;;;;;;;12.56;85.31;98757.92;1748605;82;20955;-73
2022/04/26 06:35:21;;;;;;;11.35;1.85;;;;;;;12.69;83.59;98756.28;1748183;81;21183;-73
2022/04/26 06:37:49;;;;;;;5.85;1.72;;;;;;;12.75;81.64;98749.83;1748229;82;21906;-74
2022/04/26 06:40:16;;;;;;;3.72;1.40;;;;;;;12.77;80.53;98743.52;1747924;82;22188;-74
2022/04/26 06:42:43;;;;;;;6.50;1.47;;;;;;;12.80;80.51;98751.74;1748403;82;21056;-74
2022/04/26 06:45:10;;;;;;;2.45;1.65;;;;;;;12.82;80.73;98756.46;1748090;82;21073;-74
2022/04/26 06:47:38;;;;;;;4.75;1.60;;;;;;;12.86;80.98;98756.69;1748384;82;21049;-73
2022/04/26 06:50:06;;;;;;;2.75;1.45;;;;;;;12.87;79.81;98754.41;1748027;82;21053;-74
2022/04/26 06:52:34;;;;;;;2.77;1.70;;;;;;;12.87;80.47;98756.21;1748151;82;20998;-73
2022/04/26 06:55:00;;;;;;;2.58;1.30;;;;;;;12.88;80.04;98760.09;1748416;82;20993;-73
2022/04/26 06:57:27;;;;;;;2.37;1.75;;;;;;;12.92;79.75;98752.36;1748316;82;21026;-74
2022/04/26 06:59:55;;;;;;;7.03;3.30;;;;;;;12.98;79.56;98753.34;1748610;81;20978;-74
2022/04/26 07:02:22;;;;;;;10.50;7.50;;;;;;;13.08;79.18;98748.84;1747929;82;21006;-74
2022/04/26 07:04:50;;;;;;;6.25;2.85;;;;;;;13.23;79.83;98749.31;1748250;82;21567;-74
2022/04/26 07:07:18;;;;;;;2.55;1.40;;;;;;;13.41;79.11;98746.56;1748386;81;21300;-74
2022/04/26 07:09:45;;;;;;;3.35;1.60;;;;;;;13.54;77.51;98751.50;1748033;82;21148;-73
2022/04/26 07:12:13;;;;;;;6.97;3.45;;;;;;;13.63;77.06;98749.63;1748340;82;21061;-74
2022/04/26 07:14:42;;;;;;;2.45;1.55;;;;;;;13.74;76.82;98753.81;1748244;82;21481;-74
2022/04/26 07:17:10;;;;;;;3.87;1.72;;;;;;;13.85;76.01;98758.92;1748489;81;21762;-73
2022/04/26 07:19:37;;;;;;;3.08;2.42;;;;;;;13.90;75.12;98772.71;1747988;82;21024;-74
2022/04/26 07:22:06;;;;;;;5.05;2.33;;;;;;;13.94;75.52;98764.99;1748197;82;21116;-73
2022/04/26 07:24:33;;;;;;;5.62;2.40;;;;;;;13.98;74.46;98761.20;1748348;82;21041;-73
2022/04/26 07:27:03;;;;;;;5.33;2.47;;;;;;;13.93;73.69;98765.92;1748409;82;20966;-75
2022/04/26 07:29:31;;;;;;;5.83;3.20;;;;;;;13.90;74.64;98774.03;1751033;81;21004;-74
2022/04/26 07:31:59;;;;;;;9.15;3.47;;;;;;;13.92;74.26;98774.81;1752866;80;21196;-74
2022/04/26 07:34:26;;;;;;;6.42;3.20;;;;;;;13.94;74.44;98779.54;1766805;80;21118;-74
2022/04/26 07:37:02;;;;;;;7.08;2.75;;;;;;;14.00;75.50;98774.34;1789131;80;21066;-74
2022/04/26 07:39:33;;;;;;;2.42;1.42;;;;;;;14.02;75.45;98778.61;1757661;81;21092;-74
2022/04/26 07:42:02;;;;;;;3.87;1.80;;;;;;;14.02;75.11;98783.89;1772290;80;21125;-74
2022/04/26 07:48:44;;;;;;;5.95;2.02;;;;;;;13.93;75.23;98782.63;1817582;78;23280;-74
2022/04/26 07:51:12;;;;;;;5.30;2.08;;;;;;;13.84;75.28;98790.29;1790238;80;21141;-73
2022/04/26 07:53:38;;;;;;;7.85;2.67;;;;;;;13.74;74.61;98793.95;1777374;80;21222;-72
2022/04/26 07:56:05;;;;;;;6.05;1.90;;;;;;;13.64;74.69;98792.31;1769506;80;20974;-72
2022/04/26 07:58:34;;;;;;;1.90;1.67;;;;;;;13.56;75.55;98803.80;1787366;80;21039;-72
2022/04/26 08:01:04;;;;;;;2.20;1.70;;;;;;;13.47;76.10;98809.63;1786871;80;20996;-74
2022/04/26 08:03:35;;;;;;;4.65;1.92;;;;;;;13.41;76.11;98803.38;1787169;80;21390;-74
2022/04/26 08:06:02;;;;;;;1.82;1.42;;;;;;;13.41;76.69;98816.58;1786879;80;21195;-75
2022/04/26 08:08:29;;;;;;;4.80;2.65;;;;;;;13.36;76.54;98818.16;1786995;80;21019;-74
2022/04/26 08:10:58;;;;;;;8.30;4.25;;;;;;;13.32;76.86;98822.77;1787600;80;21554;-74
2022/04/26 08:13:24;;;;;;;4.90;1.82;;;;;;;13.32;77.24;98822.77;1787143;80;21018;-74
2022/04/26 08:15:51;;;;;;;3.22;1.60;;;;;;;13.32;77.08;98818.81;1787587;80;20991;-74
2022/04/26 08:18:18;;;;;;;6.55;1.98;;;;;;;13.31;77.07;98816.22;1786676;80;21102;-73
2022/04/26 08:20:45;;;;;;;10.32;2.05;;;;;;;13.33;77.04;98819.20;1787237;80;20978;-74
2022/04/26 08:23:13;;;;;;;4.87;1.77;;;;;;;13.40;77.16;98814.87;1787135;80;21645;-74
2022/04/26 08:28:28;;;;;;;4.28;1.90;;;;;;;13.54;77.09;98820.22;1786978;80;21141;-74
2022/04/26 08:31:00;;;;;;;5.15;2.42;;;;;;;13.63;75.57;98827.60;1787138;80;21237;-73
2022/04/26 08:33:30;;;;;;;3.22;1.85;;;;;;;13.69;76.57;98827.25;1787068;80;20995;-74
2022/04/26 08:35:56;;;;;;;4.65;2.40;;;;;;;13.71;75.47;98825.36;1787026;80;21537;-75
2022/04/26 08:38:23;;;;;;;10.80;4.60;;;;;;;13.70;75.48;98832.94;1787385;80;21040;-74
2022/04/26 08:40:50;;;;;;;5.25;3.00;;;;;;;13.77;76.29;98828.59;1786986;80;21141;-75
2022/04/26 08:43:16;;;;;;;3.80;1.95;;;;;;;13.89;74.86;98834.02;1786739;80;21181;-74
2022/04/26 08:45:43;;;;;;;10.82;4.62;;;;;;;14.02;74.83;98827.98;1787106;80;21032;-74
2022/04/26 08:51:05;;;;;;;7.20;3.10;;;;;;;14.07;73.98;98843.11;1782237;80;21023;-74
2022/04/26 08:53:35;;;;;;;4.58;2.22;;;;;;;13.97;73.59;98857.37;1782038;80;21050;-75
2022/04/26 08:56:06;;;;;;;3.47;1.90;;;;;;;13.84;73.17;98853.75;1782254;80;21896;-73
2022/04/26 08:58:33;;;;;;;5.12;2.15;;;;;;;13.73;72.77;98863.61;1782218;80;21142;-75
2022/04/26 09:01:18;;;;;;;3.25;1.67;;;;;;;13.66;73.10;98858.30;1781361;80;21063;-74
2022/04/26 09:03:54;;;;;;;6.28;2.90;;;;;;;13.57;72.85;98871.59;1781560;80;21530;-75
2022/04/26 09:06:39;;;;;;;3.25;2.30;;;;;;;13.49;73.55;98857.95;1781351;80;21122;-74
2022/04/26 09:09:18;;;;;;;3.77;2.60;;;;;;;13.43;73.55;98866.22;1781260;80;21268;-74
2022/04/26 09:11:48;;;;;;;3.60;1.80;;;;;;;13.40;73.45;98867.27;1781259;80;21138;-74
2022/04/26 09:14:47;;;;;;;3.33;1.70;;;;;;;13.34;73.47;98868.45;1781496;80;21086;-74
2022/04/26 09:17:12;;;;;;;3.30;1.77;;;;;;;13.28;73.72;98875.83;1780598;80;21110;-75
2022/04/26 09:19:49;;;;;;;4.22;3.02;;;;;;;13.21;73.58;98874.00;1781498;80;21016;-73
2022/04/26 09:22:22;;;;;;;4.22;2.25;;;;;;;13.22;74.43;98881.48;1781533;80;21545;-74
2022/04/26 09:25:06;;;;;;;2.95;1.60;;;;;;;13.22;74.24;98882.80;1781424;79;21122;-74
2022/04/26 09:27:39;;;;;;;1.70;1.17;;;;;;;13.22;74.20;98878.36;1781151;80;21498;-73
2022/04/26 09:30:14;;;;;;;2.00;1.40;;;;;;;13.19;73.63;98895.69;1781484;80;21562;-75
2022/04/26 09:32:49;;;;;;;3.45;3.15;;;;;;;13.14;73.67;98877.93;1781388;80;20995;-74
2022/04/26 09:35:19;;;;;;;;;;;;;;;13.14;73.90;98875.28;1784195;80;21158;-74
2022/04/26 09:37:47;;;;;;;4.22;1.92;;;;;;;13.15;74.37;98866.44;1781161;80;20211;-74
2022/04/26 09:40:14;;;;;;;5.03;1.72;;;;;;;13.20;74.62;98872.31;1780949;79;21062;-73
2022/04/26 09:42:40;;;;;;;4.08;1.57;;;;;;;13.35;74.25;98870.64;1781401;80;21082;-73
2022/04/26 09:45:10;;;;;;;2.85;1.80;;;;;;;13.48;74.39;98869.01;1781627;80;21102;-74
2022/04/26 09:47:39;;;;;;;3.85;1.50;;;;;;;13.63;73.10;98867.25;1780089;80;21423;-75
2022/04/26 09:50:10;;;;;;;5.10;1.60;;;;;;;13.78;74.04;98863.35;1747855;80;21004;-74
2022/04/26 09:52:38;;;;;;;4.35;1.60;;;;;;;14.00;72.79;98873.04;1748087;80;21032;-74
2022/04/26 09:55:06;;;;;;;5.87;1.45;;;;;;;14.20;71.87;98873.66;1740580;82;21124;-73
2022/04/26 09:57:36;;;;;;;2.55;1.30;;;;;;;14.32;72.57;98876.88;1739134;81;22280;-75
2022/04/26 10:00:09;;;;;;;1.87;1.17;;;;;;;14.55;71.70;98874.66;1739449;81;20991;-74
2022/04/26 10:02:39;;;;;;;3.35;1.30;;;;;;;14.71;70.19;98871.48;1739158;82;21085;-74
2022/04/26 10:05:08;;;;;;;2.75;1.20;;;;;;;14.87;69.56;98872.69;1739707;81;21038;-75
2022/04/26 10:07:46;;;;;;;3.33;1.00;;;;;;;15.05;68.36;98875.50;1739244;82;20994;-73
2022/04/26 10:10:14;;;;;;;20.08;11.95;;;;;;;15.22;67.75;98876.23;1738951;81;21557;-75
2022/04/26 10:12:41;;;;;;;43.42;21.05;;;;;;;15.33;67.21;98867.58;1739160;82;21810;-75
2022/04/26 10:15:10;;;;;;;104.97;47.50;;;;;;;15.42;66.79;98865.67;1739193;81;21105;-74
2022/04/26 10:17:38;;;;;;;176.32;92.37;;;;;;;15.57;67.75;98871.30;1739440;82;21564;-74
2022/04/26 10:20:07;;;;;;;32.20;16.35;;;;;;;15.74;65.50;98870.17;1712325;82;21061;-74
2022/04/26 10:22:57;;;;;;;10.60;4.25;;;;;;;15.89;66.02;98872.32;1739234;81;21328;-74
2022/04/26 10:25:25;;;;;;;29.02;17.15;;;;;;;16.22;65.29;98870.98;1738922;81;21561;-75
2022/04/26 10:28:23;;;;;;;9.53;5.83;;;;;;;16.48;62.21;98884.29;1739118;82;21057;-75
2022/04/26 10:30:53;;;;;;;99.92;53.17;;;;;;;16.38;60.94;98880.58;1739048;81;21140;-75
2022/04/26 10:33:44;;;;;;;16.82;13.38;;;;;;;16.21;61.37;98883.05;1739116;81;21584;-74
2022/04/26 10:36:22;;;;;;;12.00;7.30;;;;;;;16.19;62.94;98883.16;1737727;82;21077;-74
2022/04/26 10:39:12;;;;;;;3.05;2.55;;;;;;;16.31;61.47;98883.64;1739057;81;21156;-73
2022/04/26 10:41:43;;;;;;;50.67;26.33;;;;;;;16.49;61.59;98888.63;1739148;82;21006;-74
2022/04/26 10:44:24;;;;;;;18.87;11.88;;;;;;;16.62;60.33;98890.80;1739558;82;21100;-74
2022/04/26 10:47:07;;;;;;;3.75;2.08;;;;;;;16.66;60.75;98897.62;1738911;81;21002;-73
2022/04/26 10:49:42;;;;;;;3.17;1.30;;;;;;;16.66;60.33;98900.27;1736003;82;21124;-76
2022/04/26 10:52:23;;;;;;;5.22;1.20;;;;;;;16.58;60.13;98891.98;1736086;82;21184;-73
2022/04/26 10:54:58;;;;;;;5.00;1.98;;;;;;;16.40;59.86;98902.06;1735831;82;21557;-73
2022/04/26 10:57:46;;;;;;;6.10;1.30;;;;;;;16.09;59.33;98909.95;1735967;82;21153;-74
2022/04/26 11:00:20;;;;;;;1.35;1.00;;;;;;;15.86;60.74;98915.45;1736269;82;21054;-74
2022/04/26 11:02:50;;;;;;;2.42;1.30;;;;;;;15.71;60.40;98920.77;1736248;82;20994;-74
2022/04/26 11:05:26;;;;;;;2.72;1.20;;;;;;;15.52;61.17;98914.97;1736274;82;21113;-74
2022/04/26 11:07:55;;;;;;;3.72;2.37;;;;;;;15.38;62.36;98913.19;1735651;82;21065;-74
2022/04/26 11:10:26;;;;;;;15.08;5.70;;;;;;;15.32;63.55;98921.55;1735778;82;21057;-74
2022/04/26 11:12:55;;;;;;;4.05;2.20;;;;;;;15.28;64.08;98920.03;1735983;82;21030;-73
2022/04/26 11:15:24;;;;;;;3.62;1.27;;;;;;;15.28;64.14;98934.61;1735766;82;21560;-73
2022/04/26 11:17:55;;;;;;;4.00;1.10;;;;;;;15.27;60.77;98939.55;1735919;82;21238;-73
2022/04/26 11:20:25;;;;;;;2.12;1.35;;;;;;;15.21;59.41;98932.36;1736019;82;21042;-73
2022/04/26 11:22:55;;;;;;;4.92;1.70;;;;;;;15.15;61.50;98939.37;1736248;82;21014;-74
2022/04/26 11:28:17;;;;;;;3.62;2.12;;;;;;;15.02;63.38;98936.62;1735982;82;21042;-76
2022/04/26 11:30:48;;;;;;;2.45;1.72;;;;;;;14.93;64.43;98941.18;1736022;82;21157;-73
2022/04/26 11:33:20;;;;;;;2.37;1.55;;;;;;;14.79;65.91;98938.52;1735963;82;21058;-72
2022/04/26 11:36:02;;;;;;;2.17;1.52;;;;;;;14.67;66.49;98936.14;1735815;82;21101;-74
2022/04/26 11:38:30;;;;;;;3.35;1.70;;;;;;;14.59;67.41;98937.08;1735968;82;21065;-74
2022/04/26 11:41:00;;;;;;;5.40;2.02;;;;;;;14.50;68.73;98940.63;1735863;82;21061;-74
2022/04/26 11:43:31;;;;;;;8.03;2.98;;;;;;;14.39;70.43;98936.46;1727501;82;21168;-73
2022/04/26 11:45:58;;;;;;;4.62;2.58;;;;;;;14.39;71.73;98925.87;1682128;85;21053;-74
2022/04/26 11:48:29;;;;;;;10.85;2.72;;;;;;;14.52;72.48;98932.59;1683239;85;21087;-74
2022/04/26 11:50:58;;;;;;;2.10;1.57;;;;;;;14.62;71.46;98935.57;1675877;84;21389;-74
2022/04/26 11:53:30;;;;;;;4.72;2.02;;;;;;;14.65;70.58;98924.80;1672363;85;21096;-74
2022/04/26 11:56:01;;;;;;;1.50;1.40;;;;;;;14.77;70.82;98928.49;1688702;84;21314;-75
2022/04/26 11:58:34;;;;;;;4.87;1.70;;;;;;;15.04;69.81;98931.23;1691005;84;21022;-75
2022/04/26 12:01:16;;;;;;;2.83;1.85;;;;;;;15.29;68.94;98929.70;1690820;84;21146;-75
2022/04/26 12:03:51;;;;;;;2.70;1.32;;;;;;;15.62;68.75;98934.64;1690843;84;21536;-75
2022/04/26 12:06:39;;;;;;;1.60;1.50;;;;;;;15.90;65.75;98936.38;1691029;84;21080;-74
2022/04/26 12:09:14;;;;;;;2.05;1.20;;;;;;;16.00;65.04;98940.58;1690968;84;21177;-73
2022/04/26 12:11:38;;;;;;;1.55;1.40;;;;;;;15.88;64.07;98943.56;1688772;84;21560;-74
2022/04/26 12:14:11;;;;;;;3.12;2.00;;;;;;;15.72;64.64;98950.81;1690809;84;21080;-74
2022/04/26 12:16:48;;;;;;;1.90;1.70;;;;;;;15.63;65.39;98952.23;1690872;84;21073;-73
2022/04/26 12:19:16;;;;;;;1.90;1.40;;;;;;;15.51;64.53;98967.13;1690842;84;21168;-73
2022/04/26 12:21:57;;;;;;;2.50;1.50;;;;;;;15.37;64.12;98960.55;1690854;84;21584;-74
2022/04/26 12:24:29;;;;;;;3.62;2.65;;;;;;;15.28;65.23;98950.06;1690717;84;21025;-74
2022/04/26 12:27:15;;;;;;;1.85;1.20;;;;;;;15.34;66.60;98954.11;1691181;84;21065;-74
2022/04/26 12:29:51;;;;;;;7.25;1.40;;;;;;;15.58;65.71;98947.25;1690852;84;21137;-74
2022/04/26 12:32:20;;;;;;;2.12;1.17;;;;;;;15.90;65.44;98949.64;1690939;84;22288;-74
2022/04/26 12:34:57;;;;;;;8.48;5.08;;;;;;;16.19;64.15;98951.30;1690962;84;21019;-73
2022/04/26 12:37:31;;;;;;;6.05;2.80;;;;;;;16.35;62.51;98947.50;1690730;84;21080;-72
2022/04/26 12:40:05;;;;;;;21.85;11.97;;;;;;;16.40;61.95;98943.70;1690829;84;21029;-74
2022/04/26 12:42:36;;;;;;;7.60;4.62;;;;;;;16.29;62.90;98942.63;1690948;84;21164;-73
2022/04/26 12:45:13;;;;;;;3.70;3.02;;;;;;;16.36;63.93;98947.05;1690623;84;21100;-74
2022/04/26 12:50:33;;;;;;;7.05;2.75;;;;;;;16.23;61.73;98954.98;1699296;83;21052;-73
2022/04/26 12:53:07;;;;;;;4.47;1.92;;;;;;;16.00;63.05;98964.94;1778388;80;21040;-74
2022/04/26 12:55:42;;;;;;;6.45;2.80;;;;;;;15.72;63.24;98958.77;1775720;80;21067;-75
2022/04/26 12:58:13;;;;;;;4.08;2.75;;;;;;;15.41;64.50;98952.76;1778650;80;20948;-74
2022/04/26 13:00:43;;;;;;;3.55;2.47;;;;;;;15.22;65.78;98951.27;1778025;80;21125;-74
2022/04/26 13:03:14;;;;;;;2.25;2.05;;;;;;;15.14;66.36;98947.41;1778715;80;21007;-74
2022/04/26 13:17:28;;;;;;;2.02;1.82;;;;;;;15.30;70.07;98968.48;1766983;80;22602;-73
2022/04/26 13:19:55;;;;;;;2.50;1.20;;;;;;;15.24;70.19;98971.90;1757716;81;20911;-73
2022/04/26 13:22:22;;;;;;;5.67;2.87;;;;;;;15.11;70.93;98964.33;1726030;82;21079;-73
2022/04/26 13:24:51;;;;;;;3.67;2.42;;;;;;;15.03;71.92;98966.64;1725807;83;21142;-73
2022/04/26 13:27:19;;;;;;;6.33;3.52;;;;;;;14.95;71.53;98968.91;1726108;82;21019;-73
2022/04/26 13:29:48;;;;;;;3.90;2.52;;;;;;;14.88;71.53;98963.13;1725941;83;21653;-74
2022/04/26 13:32:17;;;;;;;2.85;2.10;;;;;;;14.88;71.82;98963.58;1726101;83;21046;-73
2022/04/26 13:34:46;;;;;;;2.65;2.08;;;;;;;14.85;70.39;98960.66;1726443;82;21046;-74
2022/04/26 13:37:17;;;;;;;2.20;2.10;;;;;;;14.78;69.57;98967.28;1726175;83;21074;-73
2022/04/26 13:39:44;;;;;;;3.37;2.55;;;;;;;14.72;70.09;98967.16;1726505;83;21062;-74
2022/04/26 13:42:14;;;;;;;2.85;2.25;;;;;;;14.70;71.02;98969.06;1725879;83;21059;-74
2022/04/26 13:44:42;;;;;;;2.20;1.57;;;;;;;14.75;70.14;98968.31;1726505;83;21177;-74
2022/04/26 13:47:09;;;;;;;1.55;1.45;;;;;;;14.81;68.59;98967.95;1726173;83;21278;-74
2022/04/26 13:49:36;;;;;;;2.52;2.00;;;;;;;14.90;67.55;98973.63;1725929;82;21039;-74
2022/04/26 13:52:04;;;;;;;2.22;2.02;;;;;;;14.91;66.41;98977.96;1726210;82;21095;-74
2022/04/26 13:54:33;;;;;;;2.42;2.22;;;;;;;14.90;67.14;98976.28;1726135;83;21074;-74
2022/04/26 13:57:00;;;;;;;1.80;1.70;;;;;;;14.84;66.69;98974.84;1726261;83;21015;-73
2022/04/26 13:59:27;;;;;;;1.98;1.80;;;;;;;14.72;67.20;98987.02;1726117;83;21281;-73
2022/04/26 14:01:54;;;;;;;1.70;1.55;;;;;;;14.57;68.14;98986.11;1725966;83;21122;-74
2022/04/26 14:04:21;;;;;;;2.37;1.27;;;;;;;14.42;67.88;98983.89;1726022;83;22353;-75
2022/04/26 14:06:50;;;;;;;1.50;1.40;;;;;;;14.30;67.15;98992.08;1726078;82;21063;-74
2022/04/26 14:09:17;;;;;;;5.15;1.80;;;;;;;14.25;67.86;98991.50;1725933;83;21032;-73
2022/04/26 14:11:46;;;;;;;1.60;1.50;;;;;;;14.24;68.37;98999.52;1725736;83;21055;-74
2022/04/26 14:22:32;;;;;;;3.45;3.15;;;;;;;14.13;69.34;99016.88;1716586;83;20972;-74
2022/04/26 14:25:02;;;;;;;3.87;2.37;;;;;;;14.10;69.56;99017.08;1716323;82;21042;-73
2022/04/26 14:27:32;;;;;;;2.75;2.02;;;;;;;14.11;69.50;99017.92;1716430;83;21338;-73
2022/04/26 14:29:58;;;;;;;4.15;2.30;;;;;;;14.07;69.77;99013.28;1716502;82;21119;-75
2022/04/26 14:32:24;;;;;;;2.83;2.62;;;;;;;13.99;70.22;99024.77;1716353;83;21071;-74
2022/04/26 14:34:51;;;;;;;2.15;1.95;;;;;;;13.91;72.13;99034.91;1716223;83;21083;-73
2022/04/26 14:37:20;;;;;;;2.42;2.22;;;;;;;13.83;74.07;99040.62;1716613;82;21439;-73
2022/04/26 14:39:46;;;;;;;3.60;1.65;;;;;;;13.66;74.86;99042.88;1716304;83;21507;-73
2022/04/26 14:42:14;;;;;;;4.95;2.22;;;;;;;13.47;75.66;99041.72;1716732;83;21016;-73
2022/04/26 14:44:41;;;;;;;2.05;1.95;;;;;;;13.30;76.58;99046.55;1716313;83;21063;-73
2022/04/26 14:47:07;;;;;;;3.08;2.87;;;;;;;13.20;77.32;99046.66;1716145;83;21150;-73
2022/04/26 14:49:34;;;;;;;6.20;4.05;;;;;;;13.10;77.51;99043.64;1716783;83;21194;-74
2022/04/26 14:52:01;;;;;;;5.72;3.35;;;;;;;13.00;78.07;99052.98;1716054;83;21110;-76
2022/04/26 14:54:28;;;;;;;13.25;4.03;;;;;;;12.88;78.93;99065.04;1716679;82;21567;-73
2022/04/26 14:56:56;;;;;;;4.35;3.77;;;;;;;12.72;81.11;99066.74;1716801;83;20997;-75
2022/04/26 14:59:23;;;;;;;7.30;4.40;;;;;;;12.51;81.52;99073.49;1716376;83;21134;-74
2022/04/26 15:01:49;;;;;;;6.85;4.85;;;;;;;12.40;82.33;99075.80;1716683;83;21115;-74
2022/04/26 15:04:22;;;;;;;6.90;4.45;;;;;;;12.32;82.73;99080.59;1716176;82;21632;-75
2022/04/26 15:06:50;;;;;;;6.15;3.90;;;;;;;12.29;83.11;99085.57;1716184;83;21124;-75
2022/04/26 15:17:35;;;;;;;;;;;;;;;12.21;82.12;99091.20;1724835;82;21531;-75
2022/04/26 15:20:03;;;;;;;6.45;5.20;;;;;;;12.21;81.33;99093.84;1726611;82;20193;-74
2022/04/26 15:22:31;;;;;;;6.45;5.78;;;;;;;12.19;81.43;99095.70;1732234;82;21074;-74
2022/04/26 15:24:59;;;;;;;7.05;6.35;;;;;;;12.19;81.70;99099.66;1732199;82;20991;-74
2022/04/26 15:27:27;;;;;;;8.25;7.35;;;;;;;12.21;81.95;99101.75;1732113;82;21900;-74
2022/04/26 15:29:55;;;;;;;8.18;7.05;;;;;;;12.24;82.33;99098.97;1732248;82;21038;-74
2022/04/26 15:32:23;;;;;;;9.08;7.60;;;;;;;12.25;82.27;99104.66;1709010;82;21109;-73
2022/04/26 15:34:51;;;;;;;11.40;7.97;;;;;;;12.24;82.03;99104.25;1753760;81;21027;-74
2022/04/26 15:37:19;;;;;;;10.43;7.30;;;;;;;12.19;81.78;99110.21;1753992;81;20995;-74
2022/04/26 15:39:47;;;;;;;9.13;7.22;;;;;;;12.16;82.01;99106.39;1753997;81;21846;-74
2022/04/26 15:42:18;;;;;;;9.13;7.80;;;;;;;12.16;82.36;99111.67;1753572;81;21119;-74
2022/04/26 15:44:45;;;;;;;15.05;9.73;;;;;;;12.14;81.98;99114.85;1754091;81;21019;-74
2022/04/26 15:47:13;;;;;;;10.23;8.30;;;;;;;12.13;81.29;99118.88;1729988;81;21040;-73
2022/04/26 15:49:41;;;;;;;8.93;7.50;;;;;;;12.04;80.90;99125.45;1754244;81;21564;-73
2022/04/26 15:52:07;;;;;;;19.52;8.48;;;;;;;11.92;80.87;99131.27;1754590;81;22198;-74
2022/04/26 15:54:36;;;;;;;12.18;9.18;;;;;;;11.81;81.41;99129.11;1753542;81;21106;-74
2022/04/26 15:57:03;;;;;;;12.70;8.83;;;;;;;11.71;81.90;99135.26;1753974;81;21031;-74
2022/04/26 15:59:30;;;;;;;17.15;8.28;;;;;;;11.65;82.24;99140.35;1754265;81;21540;-74
2022/04/26 16:01:58;;;;;;;8.30;7.50;;;;;;;11.62;82.45;99135.69;1753897;81;20984;-74
2022/04/26 16:04:25;;;;;;;10.63;7.67;;;;;;;11.62;82.75;99139.64;1753990;81;21780;-74
2022/04/26 16:06:51;;;;;;;10.82;7.03;;;;;;;11.63;82.76;99146.60;1754165;81;21052;-74
2022/04/26 16:20:31;;;;;;;11.03;6.67;;;;;;;11.56;83.34;99163.62;1732406;82;20931;-73